Weather at Henderson Executive Airport

Public forecast

Using degrees Fahrenheit for public forecast. Weather courtesy of forecast.io.

Current aviation weather report (METAR) for Henderson Executive Airport

Retrieved 2020/10/27 12:56 UTC (44 minutes ago):

KHND 271256Z 07009KT 10SM CLR 08/M21 A3016 RMK AO2 SLP232 T00831206

Aviation forecast (TAF) for Henderson Executive Airport

Retrieved 2020/10/27 12:22 UTC (1 hour ago):

TAF KHND 271120Z 2712/2812 VRB05KT P6SM SKC FM271700 02012G21KT P6SM SKC FM272300 03007KT P6SM SKC FM280200 17006KT P6SM SKC